createdAt,value
2022-12-22T00:01:05.410Z,64.73
2022-12-22T00:03:51.630Z,64.37
2022-12-22T00:06:37.167Z,61.23
2022-12-22T00:09:22.735Z,47.93
2022-12-22T00:12:09.909Z,56.13
2022-12-22T00:14:55.718Z,59.97
2022-12-22T00:17:46.765Z,56.37
2022-12-22T00:20:34.878Z,61.57
2022-12-22T00:23:20.307Z,58.47
2022-12-22T00:26:06.199Z,49.83
2022-12-22T00:28:54.710Z,63.87
2022-12-22T00:31:41.440Z,55.57
2022-12-22T00:34:33.164Z,58.13
2022-12-22T00:37:18.630Z,54.97
2022-12-22T00:40:04.152Z,71.40
2022-12-22T00:42:50.123Z,61.63
2022-12-22T00:45:37.283Z,65.03
2022-12-22T00:48:24.917Z,66.83
2022-12-22T00:51:10.388Z,60.40
2022-12-22T00:53:55.772Z,65.63
2022-12-22T00:56:41.619Z,58.13
2022-12-22T00:59:28.569Z,53.03
2022-12-22T01:02:15.766Z,50.83
2022-12-22T01:05:01.824Z,52.90
2022-12-22T01:07:48.851Z,48.03
2022-12-22T01:10:34.859Z,47.50
2022-12-22T01:13:20.640Z,51.83
2022-12-22T01:16:06.017Z,56.30
2022-12-22T01:18:53.193Z,57.93
2022-12-22T01:21:39.166Z,55.40
2022-12-22T01:24:32.379Z,48.23
2022-12-22T01:27:18.256Z,55.77
2022-12-22T01:30:03.690Z,55.97
2022-12-22T01:32:49.725Z,58.40
2022-12-22T01:35:39.350Z,61.80
2022-12-22T01:38:25.141Z,55.10
2022-12-22T01:41:12.696Z,62.77
2022-12-22T01:43:58.637Z,58.80
2022-12-22T01:46:47.026Z,68.13
2022-12-22T01:49:36.940Z,60.43
2022-12-22T01:52:26.235Z,62.40
2022-12-22T01:55:13.963Z,62.27
2022-12-22T01:57:59.245Z,66.03
2022-12-22T02:00:45.197Z,61.83
2022-12-22T02:03:35.368Z,65.37
2022-12-22T02:06:34.782Z,62.83
2022-12-22T02:09:35.863Z,62.00
2022-12-22T02:12:28.967Z,64.00
2022-12-22T02:15:22.718Z,62.10
2022-12-22T02:18:19.339Z,57.00
2022-12-22T02:21:11.743Z,66.50
2022-12-22T02:24:20.927Z,63.57
2022-12-22T02:27:10.008Z,61.93
2022-12-22T02:30:00.475Z,56.37
2022-12-22T02:32:46.131Z,69.70
2022-12-22T02:35:34.254Z,64.50
2022-12-22T02:38:29.957Z,65.00
2022-12-22T02:41:31.158Z,56.60
2022-12-22T02:44:36.768Z,57.23
2022-12-22T02:47:27.339Z,54.10
2022-12-22T02:50:16.289Z,58.73
2022-12-22T02:53:04.802Z,54.70
2022-12-22T02:55:51.365Z,63.87
2022-12-22T02:58:37.423Z,52.10
2022-12-22T03:01:25.815Z,53.13
2022-12-22T03:04:11.716Z,47.00
2022-12-22T03:06:57.131Z,48.53
2022-12-22T03:09:42.740Z,49.80
2022-12-22T03:12:28.097Z,48.57
2022-12-22T03:15:14.111Z,51.60
2022-12-22T03:18:01.235Z,53.60
2022-12-22T03:20:46.695Z,54.87
2022-12-22T03:23:32.269Z,63.83
2022-12-22T03:26:00.406Z,53.73
2022-12-22T03:28:30.032Z,50.77
2022-12-22T03:31:01.982Z,56.43
2022-12-22T03:33:32.525Z,51.30
2022-12-22T03:36:01.778Z,59.47
2022-12-22T03:38:30.123Z,62.27
2022-12-22T03:40:58.408Z,52.57
2022-12-22T03:43:44.292Z,52.83
2022-12-22T03:46:31.668Z,54.80
2022-12-22T03:49:11.384Z,64.43
2022-12-22T03:51:42.433Z,57.97
2022-12-22T03:54:12.671Z,66.70
2022-12-22T03:56:41.221Z,67.37
2022-12-22T03:59:09.836Z,71.83
2022-12-22T04:01:42.363Z,72.23
2022-12-22T04:04:13.165Z,57.50
2022-12-22T04:06:41.749Z,60.13
2022-12-22T04:09:10.130Z,60.17
2022-12-22T04:11:56.012Z,55.00
2022-12-22T04:14:29.825Z,76.27
2022-12-22T04:17:01.959Z,102.43
2022-12-22T04:19:31.718Z,82.37
2022-12-22T04:21:59.857Z,79.57
2022-12-22T04:24:28.104Z,74.77
2022-12-22T04:26:56.286Z,70.97
2022-12-22T04:29:24.406Z,59.33
2022-12-22T04:31:52.614Z,57.50
2022-12-22T04:34:20.733Z,69.07
2022-12-22T04:36:50.235Z,59.13
2022-12-22T04:39:18.410Z,57.33
2022-12-22T04:41:46.642Z,56.53
2022-12-22T04:44:14.782Z,55.83
2022-12-22T04:46:42.939Z,54.07
2022-12-22T04:49:11.097Z,49.77
2022-12-22T04:51:39.188Z,50.13
2022-12-22T04:54:08.720Z,54.53
2022-12-22T04:56:36.844Z,48.57
2022-12-22T04:59:04.980Z,47.80
2022-12-22T05:01:33.624Z,54.17
2022-12-22T05:04:01.917Z,51.60
2022-12-22T05:06:30.285Z,44.93
2022-12-22T05:08:58.594Z,42.83
2022-12-22T05:11:28.324Z,44.90
2022-12-22T05:13:59.733Z,45.43
2022-12-22T05:16:31.922Z,45.00
2022-12-22T05:19:02.929Z,49.63
2022-12-22T05:21:31.101Z,47.73
2022-12-22T05:24:00.174Z,48.80
2022-12-22T05:26:29.841Z,47.87
2022-12-22T05:28:58.025Z,48.40
2022-12-22T05:31:27.215Z,50.53
2022-12-22T05:33:55.569Z,57.60
2022-12-22T05:36:23.666Z,51.97
2022-12-22T05:38:52.505Z,67.50
2022-12-22T05:41:20.550Z,63.03
2022-12-22T05:43:50.096Z,67.27
2022-12-22T05:46:18.398Z,65.23
2022-12-22T05:48:46.561Z,53.07
2022-12-22T05:51:14.583Z,45.60
2022-12-22T05:53:43.175Z,50.23
2022-12-22T05:56:11.366Z,44.60
2022-12-22T05:58:40.414Z,47.77
2022-12-22T06:01:10.080Z,46.87
2022-12-22T06:03:38.515Z,57.93
2022-12-22T06:06:07.188Z,59.10
2022-12-22T06:08:35.277Z,55.87
2022-12-22T06:11:03.458Z,64.23
2022-12-22T06:13:31.762Z,67.37
2022-12-22T06:16:00.094Z,69.80
2022-12-22T06:18:29.724Z,65.37
2022-12-22T06:20:57.927Z,61.23
2022-12-22T06:23:26.099Z,58.40
2022-12-22T06:25:57.905Z,51.47
2022-12-22T06:28:26.509Z,58.47
2022-12-22T06:30:55.349Z,54.00
2022-12-22T06:33:23.490Z,56.67
2022-12-22T06:35:58.546Z,62.77
2022-12-22T06:38:28.360Z,61.40
2022-12-22T06:40:57.011Z,50.77
2022-12-22T06:43:24.578Z,55.20
2022-12-22T06:45:53.030Z,55.00
2022-12-22T06:48:21.412Z,57.97
2022-12-22T06:50:49.659Z,49.07
2022-12-22T06:53:19.247Z,57.87
2022-12-22T06:55:47.336Z,55.10
2022-12-22T06:58:15.503Z,69.57
2022-12-22T07:00:45.581Z,62.83
2022-12-22T07:03:13.992Z,51.97
2022-12-22T07:05:42.443Z,54.13
2022-12-22T07:08:10.591Z,48.07
2022-12-22T07:10:57.755Z,49.30
2022-12-22T07:13:28.430Z,55.50
2022-12-22T07:16:01.111Z,50.40
2022-12-22T07:18:31.662Z,50.47
2022-12-22T07:21:01.253Z,53.97
2022-12-22T07:23:30.038Z,56.33
2022-12-22T07:26:00.244Z,50.10
2022-12-22T07:28:28.658Z,46.47
2022-12-22T07:30:57.778Z,44.97
2022-12-22T07:33:25.987Z,39.07
2022-12-22T07:36:06.082Z,41.10
2022-12-22T07:38:39.226Z,47.30
2022-12-22T07:41:24.440Z,44.53
2022-12-22T07:43:52.817Z,42.17
2022-12-22T07:46:21.012Z,42.60
2022-12-22T07:49:06.709Z,43.63
2022-12-22T07:51:35.801Z,37.93
2022-12-22T07:54:06.742Z,44.73
2022-12-22T07:56:36.296Z,40.27
2022-12-22T07:59:04.910Z,42.93
2022-12-22T08:01:33.560Z,41.27
2022-12-22T08:04:01.692Z,46.77
2022-12-22T08:06:30.728Z,47.03
2022-12-22T08:08:58.785Z,52.97
2022-12-22T08:11:26.973Z,46.77
2022-12-22T08:14:01.337Z,41.97
2022-12-22T08:16:31.072Z,46.93
2022-12-22T08:18:59.317Z,42.53
2022-12-22T08:21:27.544Z,36.40
2022-12-22T08:23:55.747Z,40.63
2022-12-22T08:26:28.423Z,47.43
2022-12-22T08:29:03.801Z,50.00
2022-12-22T08:31:33.009Z,47.27
2022-12-22T08:34:04.345Z,40.93
2022-12-22T08:36:37.963Z,42.70
2022-12-22T08:39:06.416Z,40.70
2022-12-22T08:41:53.619Z,43.50
2022-12-22T08:44:25.304Z,38.93
2022-12-22T08:46:54.649Z,42.00
2022-12-22T08:49:23.680Z,41.93
2022-12-22T08:51:52.612Z,41.87
2022-12-22T08:54:21.521Z,44.77
2022-12-22T08:56:50.080Z,38.40
2022-12-22T08:59:18.631Z,42.73
2022-12-22T09:01:51.154Z,38.03
2022-12-22T09:04:21.573Z,37.77
2022-12-22T09:06:52.493Z,45.60
2022-12-22T09:09:21.560Z,38.37
2022-12-22T09:11:49.677Z,45.17
2022-12-22T09:14:18.409Z,66.73
2022-12-22T09:16:48.004Z,51.30
2022-12-22T09:19:16.131Z,55.27
2022-12-22T09:21:45.148Z,44.33
2022-12-22T09:24:14.979Z,45.43
2022-12-22T09:26:43.256Z,42.83
2022-12-22T09:29:11.451Z,36.07
2022-12-22T09:31:41.788Z,45.10
2022-12-22T09:34:17.168Z,52.63
2022-12-22T09:36:46.701Z,36.37
2022-12-22T09:39:15.987Z,42.87
2022-12-22T09:41:48.158Z,41.57
2022-12-22T09:44:23.981Z,40.57
2022-12-22T09:46:53.643Z,37.97
2022-12-22T09:49:23.930Z,40.83
2022-12-22T09:51:55.039Z,43.03
2022-12-22T09:54:23.938Z,46.90
2022-12-22T09:56:52.344Z,56.00
2022-12-22T09:59:22.975Z,48.60
2022-12-22T10:02:16.903Z,44.03
2022-12-22T10:04:58.694Z,44.40
2022-12-22T10:07:32.704Z,45.07
2022-12-22T10:10:07.092Z,44.40
2022-12-22T10:12:35.414Z,39.50
2022-12-22T10:15:03.502Z,39.37
2022-12-22T10:17:33.791Z,42.70
2022-12-22T10:20:21.930Z,45.83
2022-12-22T10:22:52.869Z,35.47
2022-12-22T10:25:52.257Z,38.33
2022-12-22T10:28:26.880Z,43.50
2022-12-22T10:31:16.268Z,37.20
2022-12-22T10:33:47.674Z,42.43
2022-12-22T10:36:23.487Z,47.87
2022-12-22T10:39:01.814Z,46.47
2022-12-22T10:41:33.692Z,46.70
2022-12-22T10:44:05.387Z,42.63
2022-12-22T10:46:38.801Z,46.67
2022-12-22T10:49:14.756Z,75.90
2022-12-22T10:51:47.986Z,82.20
2022-12-22T10:54:27.622Z,69.13
2022-12-22T10:57:04.499Z,52.73
2022-12-22T10:59:32.833Z,49.07
2022-12-22T11:02:24.897Z,47.60
2022-12-22T11:04:54.031Z,45.63
2022-12-22T11:07:24.487Z,41.40
2022-12-22T11:09:52.568Z,38.43
2022-12-22T11:12:28.975Z,38.93
2022-12-22T11:15:04.073Z,46.60
2022-12-22T11:17:40.560Z,33.77
2022-12-22T11:20:36.078Z,39.20
2022-12-22T11:23:11.448Z,33.30
2022-12-22T11:25:52.089Z,36.10
2022-12-22T11:28:37.317Z,32.10
2022-12-22T11:31:19.087Z,28.43
2022-12-22T11:34:01.054Z,31.93
2022-12-22T11:36:40.167Z,35.77
2022-12-22T11:39:15.935Z,27.97
2022-12-22T11:42:00.309Z,30.23
2022-12-22T11:44:42.346Z,29.50
2022-12-22T11:47:22.664Z,33.13
2022-12-22T11:51:00.383Z,34.80
2022-12-22T11:53:08.180Z,37.97
2022-12-22T11:55:40.748Z,32.10
2022-12-22T11:58:25.364Z,27.77
2022-12-22T12:01:22.351Z,33.90
2022-12-22T12:04:16.104Z,30.50
2022-12-22T12:07:10.709Z,35.83
2022-12-22T12:09:48.833Z,34.47
2022-12-22T12:12:26.467Z,33.87
2022-12-22T12:15:05.780Z,35.83
2022-12-22T12:17:50.535Z,39.40
2022-12-22T12:20:46.740Z,34.90
2022-12-22T12:23:36.158Z,38.07
2022-12-22T12:26:10.551Z,36.63
2022-12-22T12:28:52.432Z,50.17
2022-12-22T12:31:26.789Z,31.27
2022-12-22T12:34:00.186Z,40.33
2022-12-22T12:36:32.977Z,28.70
2022-12-22T12:39:10.856Z,31.83
2022-12-22T12:41:48.765Z,47.53
2022-12-22T12:44:20.476Z,32.83
2022-12-22T12:46:59.988Z,31.80
2022-12-22T12:49:57.240Z,38.07
2022-12-22T12:52:58.943Z,30.97
2022-12-22T12:55:33.212Z,37.03
2022-12-22T12:58:04.546Z,24.87
2022-12-22T13:00:50.840Z,30.87
2022-12-22T13:06:51.970Z,28.67
2022-12-22T13:09:49.072Z,26.87
2022-12-22T13:12:34.907Z,35.17
2022-12-22T13:15:03.377Z,50.20
2022-12-22T13:17:42.607Z,35.33
2022-12-22T13:20:16.909Z,32.37
2022-12-22T13:22:45.345Z,172.60
2022-12-22T13:25:17.361Z,37.40
2022-12-22T13:27:45.814Z,34.37
2022-12-22T13:30:18.099Z,40.80
2022-12-22T13:32:50.952Z,38.57
2022-12-22T13:35:32.575Z,33.33
2022-12-22T13:38:02.883Z,32.73
2022-12-22T13:40:33.173Z,33.30
2022-12-22T13:43:05.346Z,38.57
2022-12-22T13:45:37.936Z,36.97
2022-12-22T13:48:17.138Z,31.83
2022-12-22T13:50:49.770Z,35.83
2022-12-22T13:53:58.183Z,45.13
2022-12-22T13:56:17.543Z,32.77
2022-12-22T13:58:47.765Z,41.27
2022-12-22T14:01:21.143Z,34.57
2022-12-22T14:04:02.734Z,32.17
2022-12-22T14:06:33.875Z,119.63
2022-12-22T14:09:15.800Z,37.87
2022-12-22T14:11:52.057Z,32.87
2022-12-22T14:14:25.849Z,27.60
2022-12-22T14:16:57.151Z,38.33
2022-12-22T14:19:28.061Z,44.47
2022-12-22T14:22:05.972Z,40.30
2022-12-22T14:24:38.703Z,33.03
2022-12-22T14:27:08.107Z,41.17
2022-12-22T14:29:36.295Z,79.43
2022-12-22T14:32:04.886Z,53.57
2022-12-22T14:34:38.322Z,39.27
2022-12-22T14:37:06.504Z,117.60
2022-12-22T14:39:34.815Z,256.43
2022-12-22T14:42:05.262Z,264.17
2022-12-22T14:44:37.888Z,45.57
2022-12-22T14:47:18.575Z,205.73
2022-12-22T14:49:50.962Z,101.73
2022-12-22T14:52:27.320Z,45.27
2022-12-22T14:54:56.811Z,48.07
2022-12-22T14:57:33.918Z,33.83
2022-12-22T15:00:07.397Z,44.63
2022-12-22T15:02:40.011Z,44.73
2022-12-22T15:05:15.087Z,40.40
2022-12-22T15:08:06.850Z,45.17
2022-12-22T15:10:41.013Z,50.30
2022-12-22T15:13:14.957Z,52.73
2022-12-22T15:15:44.165Z,70.47
2022-12-22T15:18:15.182Z,63.67
2022-12-22T15:20:44.973Z,58.30
2022-12-22T15:23:17.256Z,113.77
2022-12-22T15:25:46.037Z,60.33
2022-12-22T15:28:14.361Z,65.47
2022-12-22T15:30:43.596Z,72.03
2022-12-22T15:33:14.971Z,74.23
2022-12-22T15:35:45.691Z,67.07
2022-12-22T15:38:15.892Z,56.27
2022-12-22T15:40:44.540Z,55.73
2022-12-22T15:43:44.650Z,42.23
2022-12-22T15:46:04.019Z,43.60
2022-12-22T15:48:34.310Z,58.37
2022-12-22T15:51:09.069Z,44.37
2022-12-22T15:53:38.413Z,52.57
2022-12-22T15:56:11.225Z,51.83
2022-12-22T15:58:43.777Z,71.10
2022-12-22T16:01:12.163Z,67.97
2022-12-22T16:03:40.466Z,82.60
2022-12-22T16:06:15.301Z,78.67
2022-12-22T16:08:47.237Z,98.93
2022-12-22T16:11:15.386Z,111.90
2022-12-22T16:13:43.609Z,107.87
2022-12-22T16:16:12.173Z,177.23
2022-12-22T16:18:40.305Z,141.63
2022-12-22T16:21:16.532Z,112.10
2022-12-22T16:23:47.703Z,121.00
2022-12-22T16:26:19.120Z,134.43
2022-12-22T16:28:47.549Z,131.07
2022-12-22T16:31:21.231Z,155.07
2022-12-22T16:33:49.993Z,127.53
2022-12-22T16:36:19.718Z,145.87
2022-12-22T16:38:48.735Z,136.93
2022-12-22T16:41:21.533Z,138.50
2022-12-22T16:43:51.040Z,134.07
2022-12-22T16:46:21.912Z,151.13
2022-12-22T16:48:53.124Z,162.07
2022-12-22T16:51:24.980Z,146.70
2022-12-22T16:53:53.706Z,139.40
2022-12-22T16:56:25.024Z,142.80
2022-12-22T16:58:53.380Z,145.73
2022-12-22T17:01:36.725Z,149.10
2022-12-22T17:04:09.420Z,145.47
2022-12-22T17:06:39.820Z,142.53
2022-12-22T17:09:13.794Z,145.77
2022-12-22T17:11:42.082Z,146.23
2022-12-22T17:14:29.901Z,130.40
2022-12-22T17:17:00.310Z,131.00
2022-12-22T17:19:28.827Z,134.07
2022-12-22T17:21:59.853Z,129.30
2022-12-22T17:24:29.217Z,131.70
2022-12-22T17:27:00.219Z,119.20
2022-12-22T17:29:28.502Z,100.23
2022-12-22T17:31:57.074Z,91.80
2022-12-22T17:34:25.689Z,110.50
2022-12-22T17:36:55.964Z,106.30
2022-12-22T17:39:26.406Z,104.83
2022-12-22T17:41:57.358Z,96.50
2022-12-22T17:44:28.119Z,87.83
2022-12-22T17:46:56.485Z,97.87
2022-12-22T17:49:24.899Z,91.13
2022-12-22T17:51:53.233Z,95.93
2022-12-22T17:54:25.523Z,96.80
2022-12-22T17:57:01.263Z,106.57
2022-12-22T17:59:29.751Z,106.27
2022-12-22T18:01:58.765Z,100.27
2022-12-22T18:04:27.163Z,111.27
2022-12-22T18:06:56.030Z,111.23
2022-12-22T18:09:27.017Z,112.80
2022-12-22T18:11:57.095Z,116.43
2022-12-22T18:14:25.492Z,98.90
2022-12-22T18:16:53.699Z,105.17
2022-12-22T18:19:22.025Z,84.23
2022-12-22T18:21:50.265Z,99.73
2022-12-22T18:24:23.015Z,106.97
2022-12-22T18:26:51.199Z,112.77
2022-12-22T18:29:22.469Z,135.53
2022-12-22T18:31:50.759Z,117.10
2022-12-22T18:34:18.881Z,115.63
2022-12-22T18:36:47.841Z,118.37
2022-12-22T18:39:19.307Z,109.53
2022-12-22T18:41:48.053Z,131.83
2022-12-22T18:44:17.563Z,109.30
2022-12-22T18:46:48.811Z,101.93
2022-12-22T18:49:17.676Z,106.83
2022-12-22T18:51:46.771Z,95.20
2022-12-22T18:54:23.562Z,98.53
2022-12-22T18:56:51.765Z,79.40
2022-12-22T18:59:24.910Z,88.10
2022-12-22T19:01:58.152Z,92.43
2022-12-22T19:04:26.401Z,94.43
2022-12-22T19:06:54.635Z,89.33
2022-12-22T19:09:26.975Z,87.60
2022-12-22T19:11:55.412Z,82.40
2022-12-22T19:14:23.958Z,79.73
2022-12-22T19:16:52.328Z,96.57
2022-12-22T19:19:22.702Z,78.67
2022-12-22T19:21:50.895Z,143.77
2022-12-22T19:24:19.084Z,95.00
2022-12-22T19:26:47.309Z,83.53
2022-12-22T19:29:18.288Z,84.50
2022-12-22T19:31:46.693Z,77.57
2022-12-22T19:34:20.074Z,76.03
2022-12-22T19:36:50.281Z,85.30
2022-12-22T19:39:18.733Z,78.67
2022-12-22T19:41:49.276Z,68.90
2022-12-22T19:44:20.976Z,73.93
2022-12-22T19:46:49.724Z,72.30
2022-12-22T19:49:19.296Z,79.23
2022-12-22T19:51:49.592Z,72.77
2022-12-22T19:54:19.618Z,79.40
2022-12-22T19:56:51.611Z,83.07
2022-12-22T19:59:29.594Z,80.30
2022-12-22T20:02:01.214Z,73.07
2022-12-22T20:04:30.025Z,73.53
2022-12-22T20:06:59.541Z,76.90
2022-12-22T20:09:27.874Z,99.97
2022-12-22T20:11:56.258Z,81.40
2022-12-22T20:14:24.447Z,97.87
2022-12-22T20:16:52.838Z,93.00
2022-12-22T20:19:21.106Z,92.43
2022-12-22T20:21:49.643Z,101.83
2022-12-22T20:24:23.968Z,100.67
2022-12-22T20:26:54.735Z,95.80
2022-12-22T20:29:26.045Z,94.40
2022-12-22T20:31:54.505Z,95.57
2022-12-22T20:34:23.037Z,102.53
2022-12-22T20:36:51.431Z,91.57
2022-12-22T20:39:20.701Z,96.37
2022-12-22T20:41:53.660Z,103.43
2022-12-22T20:44:23.079Z,90.27
2022-12-22T20:46:51.428Z,87.40
2022-12-22T20:49:19.679Z,86.90
2022-12-22T20:51:48.171Z,92.40
2022-12-22T20:54:17.289Z,97.43
2022-12-22T20:56:46.405Z,100.67
2022-12-22T20:59:18.240Z,99.77
2022-12-22T21:01:47.054Z,96.57
2022-12-22T21:04:16.575Z,111.23
2022-12-22T21:06:48.586Z,113.93
2022-12-22T21:09:17.315Z,106.80
2022-12-22T21:11:45.788Z,108.03
2022-12-22T21:14:17.631Z,99.07
2022-12-22T21:16:46.091Z,97.23
2022-12-22T21:19:19.957Z,101.33
2022-12-22T21:21:48.482Z,103.93
2022-12-22T21:24:16.709Z,97.90
2022-12-22T21:26:48.514Z,101.50
2022-12-22T21:29:20.837Z,105.10
2022-12-22T21:31:48.950Z,101.20
2022-12-22T21:34:17.086Z,104.83
2022-12-22T21:36:47.927Z,101.40
2022-12-22T21:39:25.803Z,110.17
2022-12-22T21:42:04.488Z,98.73
2022-12-22T21:44:36.523Z,114.93
2022-12-22T21:47:05.362Z,104.30
2022-12-22T21:49:34.716Z,109.73
2022-12-22T21:52:02.891Z,100.77
2022-12-22T21:54:31.142Z,99.57
2022-12-22T21:56:59.321Z,113.83
2022-12-22T21:59:27.595Z,96.90
2022-12-22T22:01:57.462Z,93.23
2022-12-22T22:04:26.123Z,90.20
2022-12-22T22:06:54.345Z,99.37
2022-12-22T22:09:22.574Z,90.47
2022-12-22T22:12:07.979Z,100.53
2022-12-22T22:14:36.340Z,87.93
2022-12-22T22:17:05.871Z,99.27
2022-12-22T22:19:34.230Z,96.73
2022-12-22T22:22:02.317Z,102.53
2022-12-22T22:24:32.003Z,96.40
2022-12-22T22:27:00.230Z,91.67
2022-12-22T22:29:28.323Z,92.03
2022-12-22T22:31:56.347Z,108.27
2022-12-22T22:34:26.017Z,94.20
2022-12-22T22:36:54.103Z,96.27
2022-12-22T22:39:23.228Z,96.97
2022-12-22T22:41:51.667Z,93.87
2022-12-22T22:44:20.093Z,104.30
2022-12-22T22:46:48.287Z,89.53
2022-12-22T22:49:16.665Z,104.23
2022-12-22T22:51:48.502Z,97.90
2022-12-22T22:54:16.737Z,93.50
2022-12-22T22:56:46.120Z,96.73
2022-12-22T22:59:15.424Z,90.17
2022-12-22T23:01:43.770Z,90.87
2022-12-22T23:04:12.203Z,87.47
2022-12-22T23:06:41.821Z,86.03
2022-12-22T23:09:11.626Z,87.20
2022-12-22T23:11:39.956Z,82.13
2022-12-22T23:14:08.311Z,84.10
2022-12-22T23:16:38.697Z,83.83
2022-12-22T23:19:07.204Z,89.77
2022-12-22T23:21:35.911Z,84.33
2022-12-22T23:24:04.091Z,90.57
2022-12-22T23:26:33.733Z,93.60
2022-12-22T23:29:03.841Z,91.37
2022-12-22T23:31:32.776Z,82.83
2022-12-22T23:34:01.478Z,83.70
2022-12-22T23:36:29.783Z,100.37
2022-12-22T23:38:58.123Z,92.30
2022-12-22T23:41:26.326Z,85.87
2022-12-22T23:43:56.015Z,97.57
2022-12-22T23:46:24.418Z,87.47
2022-12-22T23:48:53.503Z,87.60
2022-12-22T23:51:23.107Z,88.43
2022-12-22T23:53:51.185Z,85.50
2022-12-22T23:56:19.434Z,83.63
2022-12-22T23:58:52.532Z,85.87
